Time;durP1;ratioP1;P1;durP2;ratioP2;P2;SDS_P1;SDS_P2;PMS_P1;PMS_P2;Temp;Humidity;BMP_temperature;BMP_pressure;BME280_temperature;BME280_humidity;BME280_pressure;Samples;Min_cycle;Max_cycle;Signal;HPM_P1;HPM_P2
2023/06/07 00:02:16;;;;;;;16.50;8.70;;;;;;;11.21;100.00;102093.63;5031028;28;20476;-46
2023/06/07 00:04:59;;;;;;;11.93;10.33;;;;;;;11.22;100.00;102100.63;5032171;28;20559;-42
2023/06/07 00:07:27;;;;;;;12.10;10.10;;;;;;;11.19;100.00;102096.47;5031711;28;20560;-42
2023/06/07 00:09:55;;;;;;;18.90;10.73;;;;;;;11.19;100.00;102101.81;5031268;28;20428;-47
2023/06/07 00:12:22;;;;;;;24.90;11.30;;;;;;;11.23;100.00;102102.31;5005286;28;20487;-43
2023/06/07 00:14:52;;;;;;;18.20;11.10;;;;;;;11.28;100.00;102099.97;5031243;28;20981;-47
2023/06/07 00:17:20;;;;;;;24.83;11.30;;;;;;;11.33;100.00;102100.28;5030925;28;20499;-42
2023/06/07 00:19:48;;;;;;;22.33;11.37;;;;;;;11.41;100.00;102098.44;5030438;28;20436;-42
2023/06/07 00:22:16;;;;;;;19.30;10.80;;;;;;;11.49;100.00;102094.94;5005731;28;20467;-46
2023/06/07 00:24:44;;;;;;;22.30;10.97;;;;;;;11.58;100.00;102107.28;5030647;28;20432;-43
2023/06/07 00:27:12;;;;;;;17.50;11.53;;;;;;;11.60;100.00;102108.78;5026206;28;20485;-42
2023/06/07 00:29:40;;;;;;;19.27;11.90;;;;;;;11.68;100.00;102107.91;5030846;28;20784;-44
2023/06/07 00:32:09;;;;;;;16.00;11.20;;;;;;;11.76;100.00;102099.09;5007279;28;20476;-43
2023/06/07 00:34:37;;;;;;;16.50;9.47;;;;;;;11.83;100.00;102102.72;5030745;28;20479;-43
2023/06/07 00:37:05;;;;;;;27.77;11.03;;;;;;;11.84;100.00;102104.41;5030686;28;20456;-44
2023/06/07 00:39:33;;;;;;;18.63;11.23;;;;;;;11.87;100.00;102104.06;5030558;28;20428;-45
2023/06/07 00:42:00;;;;;;;22.40;10.60;;;;;;;11.89;100.00;102104.72;5004163;28;20507;-44
2023/06/07 00:44:28;;;;;;;18.40;10.80;;;;;;;11.92;100.00;102102.53;5030224;28;20497;-44
2023/06/07 00:46:56;;;;;;;21.23;10.97;;;;;;;11.94;100.00;102097.03;5030335;28;20503;-43
2023/06/07 00:49:26;;;;;;;25.67;11.33;;;;;;;11.95;100.00;102099.50;5030184;28;20440;-44
2023/06/07 00:51:53;;;;;;;22.77;11.30;;;;;;;11.93;100.00;102098.03;5029651;28;20519;-45
2023/06/07 00:54:22;;;;;;;21.50;10.77;;;;;;;11.96;100.00;102090.50;5003950;28;20487;-43
2023/06/07 00:56:50;;;;;;;18.20;9.93;;;;;;;11.98;100.00;102101.00;5030060;28;20982;-42
2023/06/07 00:59:18;;;;;;;16.53;10.70;;;;;;;12.00;100.00;102102.53;5030148;28;20432;-45
2023/06/07 01:01:51;;;;;;;19.20;10.53;;;;;;;12.10;100.00;102096.94;5029122;28;20426;-44
2023/06/07 01:04:20;;;;;;;21.90;10.77;;;;;;;12.12;100.00;102097.63;5004913;28;20455;-44
2023/06/07 01:06:52;;;;;;;24.93;11.80;;;;;;;12.14;100.00;102091.09;5029800;28;20467;-43
2023/06/07 01:09:21;;;;;;;18.43;11.77;;;;;;;12.10;100.00;102084.41;5029521;28;20988;-44
2023/06/07 01:11:51;;;;;;;21.83;11.80;;;;;;;11.96;100.00;102082.47;5029736;28;20421;-46
2023/06/07 01:14:20;;;;;;;21.10;10.37;;;;;;;12.05;100.00;102092.13;5003447;28;20460;-42
2023/06/07 01:16:50;;;;;;;23.63;11.00;;;;;;;12.07;100.00;102090.09;5029273;28;20460;-44
2023/06/07 01:19:22;;;;;;;20.67;12.47;;;;;;;12.03;100.00;102091.47;5029270;28;20922;-44
2023/06/07 01:21:56;;;;;;;25.80;10.77;;;;;;;12.14;100.00;102084.91;5029533;28;20498;-43
2023/06/07 01:24:29;;;;;;;20.40;10.27;;;;;;;11.97;100.00;102083.31;5029421;28;20432;-42
2023/06/07 01:26:59;;;;;;;19.87;12.50;;;;;;;11.88;100.00;102084.34;4997631;28;20523;-44
2023/06/07 01:29:28;;;;;;;17.80;10.70;;;;;;;12.03;100.00;102083.47;5013730;28;20775;-45
2023/06/07 01:31:58;;;;;;;23.60;13.00;;;;;;;12.05;100.00;102073.41;5029130;28;20999;-44
2023/06/07 01:34:27;;;;;;;23.10;11.90;;;;;;;12.10;100.00;102081.75;5029803;28;20801;-43
2023/06/07 01:36:56;;;;;;;13.00;10.97;;;;;;;12.10;100.00;102081.75;5003080;28;20464;-43
2023/06/07 01:39:27;;;;;;;19.20;11.33;;;;;;;12.08;100.00;102077.56;5029595;28;20433;-44
2023/06/07 01:41:57;;;;;;;25.43;12.00;;;;;;;11.99;100.00;102086.63;5029369;28;20467;-43
2023/06/07 01:44:26;;;;;;;18.20;13.90;;;;;;;11.81;100.00;102078.00;5029625;28;20846;-42
2023/06/07 01:46:54;;;;;;;22.47;12.67;;;;;;;11.77;100.00;102076.72;5004021;28;20521;-43
2023/06/07 01:49:22;;;;;;;17.83;12.50;;;;;;;11.73;100.00;102080.72;5028736;28;20432;-42
2023/06/07 01:51:49;;;;;;;26.47;12.60;;;;;;;11.65;100.00;102077.03;5029517;28;20486;-43
2023/06/07 01:54:18;;;;;;;20.47;13.60;;;;;;;11.58;100.00;102076.06;5029149;28;20900;-43
2023/06/07 01:56:57;;;;;;;19.33;11.97;;;;;;;11.46;100.00;102074.75;5028834;28;21186;-45
2023/06/07 01:59:31;;;;;;;23.53;13.50;;;;;;;11.52;100.00;102075.91;5001275;28;20448;-43
2023/06/07 02:02:08;;;;;;;23.20;12.80;;;;;;;11.66;100.00;102077.84;5029574;28;20844;-42
2023/06/07 02:04:43;;;;;;;29.23;14.40;;;;;;;11.77;100.00;102080.19;5028989;28;20428;-43
2023/06/07 02:07:17;;;;;;;24.83;13.97;;;;;;;11.85;100.00;102076.69;5025031;28;20502;-46
2023/06/07 02:09:48;;;;;;;17.20;13.00;;;;;;;11.90;100.00;102080.50;5028781;28;20531;-46
2023/06/07 02:12:18;;;;;;;26.20;14.37;;;;;;;11.93;100.00;102071.28;5028700;28;20424;-44
2023/06/07 02:14:52;;;;;;;17.50;13.43;;;;;;;11.96;100.00;102065.59;5029666;28;20432;-44
2023/06/07 02:17:20;;;;;;;21.93;13.50;;;;;;;11.97;100.00;102068.13;5026022;28;20555;-45
2023/06/07 02:19:48;;;;;;;22.90;14.50;;;;;;;11.99;100.00;102068.75;5022425;28;20852;-45
2023/06/07 02:22:16;;;;;;;23.40;14.83;;;;;;;12.02;100.00;102057.72;5028544;28;20998;-44
2023/06/07 02:24:44;;;;;;;21.00;14.37;;;;;;;11.93;100.00;102058.75;5028968;28;20429;-46
2023/06/07 02:27:12;;;;;;;18.07;14.20;;;;;;;11.77;100.00;102055.31;5028670;28;20510;-43
2023/06/07 02:29:41;;;;;;;20.90;14.60;;;;;;;11.61;100.00;102053.50;5007556;28;20444;-44
2023/06/07 02:32:09;;;;;;;25.50;16.10;;;;;;;11.60;100.00;102051.81;5032966;28;20440;-44
2023/06/07 02:34:37;;;;;;;22.37;15.57;;;;;;;11.61;100.00;102054.34;5032768;28;20558;-42
2023/06/07 02:37:05;;;;;;;35.07;16.70;;;;;;;11.68;100.00;102057.97;5032454;28;20448;-44
2023/06/07 02:39:33;;;;;;;31.90;16.50;;;;;;;11.65;100.00;102052.97;5009054;28;20472;-42
2023/06/07 02:42:01;;;;;;;18.60;15.07;;;;;;;11.50;100.00;102046.66;5032160;28;20459;-43
2023/06/07 02:44:29;;;;;;;26.07;16.53;;;;;;;11.45;100.00;102048.19;5033034;28;20425;-42
2023/06/07 02:46:58;;;;;;;24.90;16.37;;;;;;;11.25;100.00;102050.41;5032913;28;20514;-44
2023/06/07 02:49:26;;;;;;;28.10;16.77;;;;;;;11.14;100.00;102050.72;5007113;28;20463;-46
2023/06/07 02:51:54;;;;;;;22.97;17.13;;;;;;;11.16;100.00;102055.91;5032345;28;20436;-44
2023/06/07 02:54:21;;;;;;;24.43;17.57;;;;;;;10.99;100.00;102060.44;5031730;28;20475;-42
2023/06/07 02:56:49;;;;;;;21.50;18.07;;;;;;;11.00;100.00;102054.94;5032291;28;20483;-48
2023/06/07 02:59:17;;;;;;;22.70;17.40;;;;;;;11.06;100.00;102056.09;5006863;28;20841;-50
2023/06/07 03:01:46;;;;;;;20.53;16.57;;;;;;;10.99;100.00;102063.94;5032092;28;21022;-43
2023/06/07 03:04:18;;;;;;;26.33;16.57;;;;;;;10.94;100.00;102065.44;5031895;28;20433;-42
2023/06/07 03:06:47;;;;;;;23.10;18.27;;;;;;;11.00;100.00;102065.59;5032078;28;20456;-44
2023/06/07 03:09:16;;;;;;;24.27;17.17;;;;;;;10.97;100.00;102057.94;5011408;28;20428;-43
2023/06/07 03:11:44;;;;;;;26.03;17.13;;;;;;;11.01;100.00;102067.28;5031112;28;20475;-43
2023/06/07 03:14:12;;;;;;;23.50;18.27;;;;;;;11.00;100.00;102062.94;5032106;28;20472;-43
2023/06/07 03:16:40;;;;;;;27.30;16.57;;;;;;;11.10;100.00;102065.44;5030665;28;20456;-42
2023/06/07 03:19:07;;;;;;;21.53;16.33;;;;;;;11.07;100.00;102069.28;5031907;28;20949;-44
2023/06/07 03:21:38;;;;;;;22.63;16.47;;;;;;;11.06;100.00;102064.09;5005792;28;20456;-43
2023/06/07 03:24:06;;;;;;;23.17;18.23;;;;;;;11.20;100.00;102068.75;5031565;28;20425;-43
2023/06/07 03:26:34;;;;;;;26.37;15.37;;;;;;;11.34;100.00;102069.91;5031246;28;20804;-44
2023/06/07 03:29:02;;;;;;;25.33;17.10;;;;;;;11.47;100.00;102071.06;5028880;28;20672;-42
2023/06/07 03:31:29;;;;;;;27.93;15.10;;;;;;;11.57;100.00;102068.19;5010448;28;20534;-43
2023/06/07 03:33:57;;;;;;;19.10;14.73;;;;;;;11.63;100.00;102065.69;5031925;28;21027;-43
2023/06/07 03:36:25;;;;;;;29.97;14.80;;;;;;;11.64;100.00;102072.69;5030548;28;20440;-46
2023/06/07 03:38:55;;;;;;;22.53;15.20;;;;;;;11.68;100.00;102067.81;5032175;28;20472;-46
2023/06/07 03:41:22;;;;;;;23.10;14.50;;;;;;;11.81;100.00;102070.00;5014675;28;20476;-42
2023/06/07 03:43:50;;;;;;;21.07;13.40;;;;;;;11.89;100.00;102068.13;5030944;28;20459;-43
2023/06/07 03:46:18;;;;;;;14.53;12.97;;;;;;;11.82;100.00;102071.66;5031235;28;20460;-46
2023/06/07 03:48:45;;;;;;;23.30;14.50;;;;;;;11.76;100.00;102067.84;5031190;28;20463;-44
2023/06/07 03:51:14;;;;;;;18.00;12.83;;;;;;;11.84;100.00;102066.97;5004988;28;20502;-44
2023/06/07 03:53:42;;;;;;;18.47;13.60;;;;;;;11.87;100.00;102074.66;5031328;28;20567;-44
2023/06/07 03:56:11;;;;;;;15.97;11.90;;;;;;;11.73;100.00;102072.69;5031465;28;20505;-46
2023/06/07 03:58:39;;;;;;;19.67;12.40;;;;;;;11.66;100.00;102068.00;5030670;28;20853;-45
2023/06/07 04:01:06;;;;;;;16.87;12.80;;;;;;;11.48;100.00;102074.56;5005551;28;20787;-48
2023/06/07 04:03:34;;;;;;;21.60;13.40;;;;;;;11.51;100.00;102072.38;5030432;28;20432;-44
2023/06/07 04:06:02;;;;;;;19.70;12.37;;;;;;;11.42;100.00;102073.41;5031065;28;20531;-45
2023/06/07 04:08:30;;;;;;;22.10;12.57;;;;;;;11.43;100.00;102074.25;5030451;28;20448;-49
2023/06/07 04:10:58;;;;;;;20.17;12.70;;;;;;;11.62;100.00;102074.69;5030951;28;20860;-43
2023/06/07 04:13:27;;;;;;;15.27;13.47;;;;;;;11.78;100.00;102078.34;5016519;28;20491;-43
2023/06/07 04:15:55;;;;;;;20.50;12.70;;;;;;;11.96;100.00;102074.44;5030653;28;20870;-45
2023/06/07 04:18:22;;;;;;;18.13;13.67;;;;;;;12.07;100.00;102070.56;5030058;28;20476;-44
2023/06/07 04:20:50;;;;;;;21.20;13.80;;;;;;;12.17;100.00;102077.38;5030887;28;20832;-45
2023/06/07 04:23:18;;;;;;;15.67;13.30;;;;;;;12.27;100.00;102070.97;5004603;28;20526;-42
2023/06/07 04:25:46;;;;;;;22.03;13.07;;;;;;;12.36;100.00;102073.44;5030431;28;20428;-44
2023/06/07 04:28:15;;;;;;;17.10;12.37;;;;;;;12.42;100.00;102071.91;5025924;28;20878;-42
2023/06/07 04:30:44;;;;;;;15.43;12.37;;;;;;;12.52;100.00;102072.47;5030316;28;20916;-43
2023/06/07 04:33:14;;;;;;;20.33;15.07;;;;;;;12.53;100.00;102066.97;5004112;28;20464;-42
2023/06/07 04:35:42;;;;;;;14.80;11.70;;;;;;;12.60;100.00;102059.88;5030088;28;20485;-42
2023/06/07 04:38:11;;;;;;;24.70;13.30;;;;;;;12.59;100.00;102057.41;5030320;28;20463;-43
2023/06/07 04:40:41;;;;;;;18.10;13.70;;;;;;;12.64;100.00;102060.34;5031193;28;20446;-43
2023/06/07 04:43:11;;;;;;;12.70;11.50;;;;;;;12.75;100.00;102059.97;5004771;28;20559;-44
2023/06/07 04:45:41;;;;;;;12.93;11.77;;;;;;;12.87;100.00;102063.06;5030788;28;20436;-44
2023/06/07 04:48:11;;;;;;;19.67;11.47;;;;;;;12.91;100.00;102054.47;5029667;28;20587;-46
2023/06/07 04:50:41;;;;;;;12.17;11.07;;;;;;;13.00;100.00;102052.56;5029748;28;20530;-45
2023/06/07 04:53:10;;;;;;;13.13;11.80;;;;;;;13.10;100.00;102051.34;5030163;28;20790;-43
2023/06/07 04:55:41;;;;;;;18.70;14.00;;;;;;;13.10;100.00;102058.53;5002239;28;20514;-44
2023/06/07 04:58:09;;;;;;;16.13;12.33;;;;;;;12.92;100.00;102047.28;5029964;28;20448;-48
2023/06/07 05:00:39;;;;;;;13.67;11.80;;;;;;;12.64;100.00;102052.34;5030064;28;20810;-45
2023/06/07 05:03:08;;;;;;;16.60;11.60;;;;;;;12.54;100.00;102057.94;5029731;28;20864;-43
2023/06/07 05:05:38;;;;;;;17.40;12.63;;;;;;;12.50;100.00;102069.16;5003995;28;20543;-46
2023/06/07 05:08:06;;;;;;;17.47;11.40;;;;;;;12.40;100.00;102060.50;5029616;28;20484;-47
2023/06/07 05:10:34;;;;;;;13.03;12.00;;;;;;;12.31;100.00;102066.91;5030203;28;20428;-42
2023/06/07 05:13:01;;;;;;;18.33;12.20;;;;;;;12.40;100.00;102063.19;5030135;28;20543;-43
2023/06/07 05:15:31;;;;;;;15.00;12.70;;;;;;;12.52;100.00;102059.09;5003842;28;20483;-44
2023/06/07 05:17:59;;;;;;;17.27;13.60;;;;;;;12.46;100.00;102059.81;5029293;28;20470;-47
2023/06/07 05:20:27;;;;;;;15.97;12.33;;;;;;;12.70;100.00;102063.16;5028921;28;20942;-44
2023/06/07 05:22:57;;;;;;;15.27;11.57;;;;;;;12.96;100.00;102054.75;5029285;28;20464;-43
2023/06/07 05:25:24;;;;;;;16.67;12.10;;;;;;;13.21;100.00;102066.97;5004095;28;20452;-46
2023/06/07 05:27:52;;;;;;;14.17;11.80;;;;;;;13.46;100.00;102064.88;5024710;28;21012;-44
2023/06/07 05:30:39;;;;;;;17.30;11.80;;;;;;;13.60;100.00;102064.06;5016429;28;20431;-44
2023/06/07 05:33:08;;;;;;;12.73;11.30;;;;;;;13.78;100.00;102067.19;5029356;28;20792;-42
2023/06/07 05:35:35;;;;;;;12.30;11.30;;;;;;;13.98;100.00;102070.13;5003684;28;20545;-45
2023/06/07 05:38:05;;;;;;;12.90;11.60;;;;;;;14.14;100.00;102059.22;5029513;28;20530;-44
2023/06/07 05:40:32;;;;;;;12.57;11.13;;;;;;;14.30;100.00;102066.22;5029079;28;20432;-42
2023/06/07 05:43:00;;;;;;;19.23;12.37;;;;;;;14.40;100.00;102059.53;5029021;28;20512;-43
2023/06/07 05:45:28;;;;;;;14.70;12.47;;;;;;;14.52;100.00;102059.03;5017503;28;20530;-43
2023/06/07 05:47:56;;;;;;;14.70;12.40;;;;;;;14.59;100.00;102068.00;5028814;28;20451;-43
2023/06/07 05:50:24;;;;;;;16.47;11.97;;;;;;;14.59;100.00;102070.69;5029250;28;21010;-44
2023/06/07 05:52:56;;;;;;;19.33;11.47;;;;;;;14.62;100.00;102067.63;5028529;28;20474;-44
2023/06/07 05:55:27;;;;;;;17.10;12.07;;;;;;;14.53;100.00;102056.19;5009577;28;20480;-42
2023/06/07 05:57:54;;;;;;;15.93;11.83;;;;;;;14.33;100.00;102055.97;5028872;28;20452;-45
2023/06/07 06:00:23;;;;;;;13.63;12.03;;;;;;;14.44;100.00;102062.69;5032019;28;20431;-44
2023/06/07 06:02:52;;;;;;;21.53;12.10;;;;;;;14.44;100.00;102067.22;5033342;28;20424;-44
2023/06/07 06:05:23;;;;;;;12.37;10.80;;;;;;;14.66;100.00;102059.00;5033285;28;20530;-44
2023/06/07 06:07:51;;;;;;;17.40;11.90;;;;;;;14.90;100.00;102055.91;5006849;28;20476;-45
2023/06/07 06:10:19;;;;;;;12.67;10.63;;;;;;;14.98;100.00;102048.75;5032570;28;20489;-42
2023/06/07 06:12:48;;;;;;;12.37;11.10;;;;;;;14.72;100.00;102058.25;5032868;28;20845;-42
2023/06/07 06:15:15;;;;;;;15.50;11.93;;;;;;;14.52;100.00;102059.88;5033340;28;20511;-43
2023/06/07 06:17:43;;;;;;;13.70;11.30;;;;;;;14.41;100.00;102060.38;5007102;28;20563;-45
2023/06/07 06:20:16;;;;;;;12.20;10.93;;;;;;;14.47;100.00;102066.84;5033484;28;20527;-44
2023/06/07 06:22:44;;;;;;;15.13;11.83;;;;;;;14.65;100.00;102061.88;5032023;28;20439;-45
2023/06/07 06:25:13;;;;;;;14.67;11.70;;;;;;;15.11;100.00;102052.41;5033660;28;20424;-48
2023/06/07 06:27:41;;;;;;;13.77;11.60;;;;;;;15.33;100.00;102061.22;5008789;28;20842;-43
2023/06/07 06:30:11;;;;;;;13.10;11.83;;;;;;;15.64;100.00;102053.63;5032548;28;20981;-45
2023/06/07 06:32:40;;;;;;;20.17;12.73;;;;;;;15.85;100.00;102060.75;5032164;28;20834;-42
2023/06/07 06:35:09;;;;;;;19.90;12.47;;;;;;;15.96;100.00;102061.03;5032530;28;20476;-42
2023/06/07 06:37:36;;;;;;;13.33;11.50;;;;;;;16.08;100.00;102055.91;5032265;28;20857;-43
2023/06/07 06:40:05;;;;;;;13.23;11.03;;;;;;;15.84;100.00;102067.16;5004896;28;20501;-44
2023/06/07 06:42:34;;;;;;;17.03;11.00;;;;;;;15.67;100.00;102060.44;5031960;28;20468;-45
2023/06/07 06:45:01;;;;;;;17.43;11.50;;;;;;;16.05;100.00;102070.59;5032762;28;20459;-44
2023/06/07 06:47:30;;;;;;;15.17;9.73;;;;;;;16.31;100.00;102066.31;5032396;28;20458;-43
2023/06/07 06:50:00;;;;;;;13.70;10.90;;;;;;;16.75;100.00;102068.56;5017840;28;20546;-44
2023/06/07 06:52:27;;;;;;;17.83;11.33;;;;;;;16.70;100.00;102066.47;5032196;28;20634;-43
2023/06/07 06:54:55;;;;;;;13.87;10.70;;;;;;;16.64;100.00;102069.13;5032528;28;20486;-43
2023/06/07 06:57:23;;;;;;;14.63;10.73;;;;;;;16.91;100.00;102073.53;5032272;28;20495;-44
2023/06/07 06:59:51;;;;;;;23.57;10.07;;;;;;;16.93;100.00;102075.00;5016055;28;20526;-43
2023/06/07 07:02:19;;;;;;;16.90;9.93;;;;;;;17.37;100.00;102071.69;5031603;28;20428;-46
2023/06/07 07:04:48;;;;;;;13.60;9.40;;;;;;;18.34;100.00;102081.59;5032263;28;20550;-44
2023/06/07 07:07:16;;;;;;;12.53;8.73;;;;;;;18.91;100.00;102078.78;5031795;28;20451;-44
2023/06/07 07:09:44;;;;;;;16.07;8.53;;;;;;;18.53;100.00;102068.00;5005786;28;20463;-44
2023/06/07 07:12:12;;;;;;;15.47;8.73;;;;;;;18.02;100.00;102078.81;5030784;28;20470;-44
2023/06/07 07:14:39;;;;;;;13.23;9.50;;;;;;;18.20;100.00;102075.41;5031863;28;20518;-44
2023/06/07 07:17:07;;;;;;;12.67;7.30;;;;;;;18.21;100.00;102085.19;5031086;28;20517;-44
2023/06/07 07:19:35;;;;;;;10.23;8.50;;;;;;;18.17;100.00;102071.28;5006061;28;20510;-43
2023/06/07 07:22:04;;;;;;;15.60;8.30;;;;;;;18.08;100.00;102075.28;5030948;28;20439;-43
2023/06/07 07:24:32;;;;;;;14.07;8.63;;;;;;;18.30;100.00;102075.81;5031432;28;20458;-48
2023/06/07 07:26:59;;;;;;;16.23;9.37;;;;;;;18.60;100.00;102076.91;5027610;28;20487;-42
2023/06/07 07:29:27;;;;;;;12.03;7.70;;;;;;;18.76;100.00;102068.28;4997717;28;20473;-46
2023/06/07 07:31:55;;;;;;;15.37;8.13;;;;;;;18.35;100.00;102080.53;5030717;28;20436;-47
2023/06/07 07:34:23;;;;;;;15.47;9.03;;;;;;;18.00;100.00;102075.50;5031431;28;20460;-43
2023/06/07 07:36:51;;;;;;;15.17;8.27;;;;;;;18.76;100.00;102079.09;5031208;28;20475;-45
2023/06/07 07:39:21;;;;;;;11.00;8.47;;;;;;;19.69;100.00;102076.44;5031226;28;20444;-44
2023/06/07 07:41:49;;;;;;;15.17;8.87;;;;;;;19.49;99.20;102065.00;5005542;28;20463;-43
2023/06/07 07:44:17;;;;;;;11.40;8.30;;;;;;;19.98;99.11;102069.47;5031159;28;20789;-45
2023/06/07 07:46:45;;;;;;;13.90;8.53;;;;;;;19.59;97.13;102071.53;5030982;28;20572;-43
2023/06/07 07:49:12;;;;;;;13.30;8.87;;;;;;;19.65;100.00;102072.56;5030965;28;20640;-46
2023/06/07 07:51:40;;;;;;;13.43;8.90;;;;;;;20.07;98.00;102070.81;5005238;28;20462;-47
2023/06/07 07:54:08;;;;;;;17.20;10.03;;;;;;;20.96;91.93;102068.94;5030877;28;20523;-45
2023/06/07 07:56:37;;;;;;;15.57;9.13;;;;;;;21.23;83.53;102066.66;5029997;28;20537;-43
2023/06/07 07:59:05;;;;;;;14.00;8.80;;;;;;;21.07;82.01;102071.91;5030749;28;21138;-43
2023/06/07 08:01:34;;;;;;;15.83;9.60;;;;;;;20.25;85.17;102068.09;5013994;28;20468;-42
2023/06/07 08:04:01;;;;;;;13.00;8.93;;;;;;;20.38;93.05;102065.22;5030722;28;20431;-44
2023/06/07 08:06:29;;;;;;;14.10;8.23;;;;;;;20.06;91.97;102067.28;5030553;28;20435;-43
2023/06/07 08:08:57;;;;;;;10.23;8.67;;;;;;;19.18;100.00;102074.81;5030690;28;20444;-42
2023/06/07 08:11:25;;;;;;;10.17;9.10;;;;;;;19.30;100.00;102064.94;5017611;28;20860;-44
2023/06/07 08:13:54;;;;;;;14.13;8.37;;;;;;;18.75;100.00;102079.31;5030528;28;20806;-50
2023/06/07 08:16:22;;;;;;;12.87;8.30;;;;;;;18.61;100.00;102085.84;5030719;28;20514;-44
2023/06/07 08:18:56;;;;;;;14.07;8.80;;;;;;;19.16;100.00;102084.19;5030354;28;20494;-45
2023/06/07 08:21:25;;;;;;;19.37;9.57;;;;;;;19.15;100.00;102080.66;5005446;28;20475;-43
2023/06/07 08:23:54;;;;;;;13.00;8.20;;;;;;;19.42;99.82;102077.75;5030153;28;20430;-50
2023/06/07 08:26:23;;;;;;;11.50;8.70;;;;;;;19.44;100.00;102086.50;5030864;28;20473;-44
2023/06/07 08:28:50;;;;;;;17.60;8.93;;;;;;;19.84;98.15;102085.03;5025447;28;20933;-44
2023/06/07 08:31:20;;;;;;;15.90;8.80;;;;;;;20.76;95.86;102081.97;5030226;28;20439;-49
2023/06/07 08:33:47;;;;;;;17.37;8.83;;;;;;;20.40;89.96;102082.06;5028689;28;20463;-45
2023/06/07 08:36:15;;;;;;;9.80;8.33;;;;;;;19.63;94.92;102083.59;5030027;28;20506;-47
2023/06/07 08:38:42;;;;;;;15.90;8.47;;;;;;;19.68;97.28;102085.63;5030959;28;20506;-46
2023/06/07 08:41:10;;;;;;;12.90;8.67;;;;;;;21.27;87.40;102080.56;5030442;28;20494;-47
2023/06/07 08:43:40;;;;;;;10.80;8.17;;;;;;;20.74;88.05;102081.38;5004355;28;20483;-43
2023/06/07 08:46:08;;;;;;;18.50;8.30;;;;;;;21.11;89.69;102087.53;5030342;28;20432;-44
2023/06/07 08:48:39;;;;;;;13.00;8.67;;;;;;;21.75;80.31;102077.59;5030212;28;20989;-44
2023/06/07 08:51:08;;;;;;;14.37;8.33;;;;;;;22.35;81.72;102083.50;5030578;28;20426;-47
2023/06/07 08:53:47;;;;;;;11.00;8.27;;;;;;;22.65;72.30;102088.72;5017279;28;20463;-45
2023/06/07 08:56:16;;;;;;;15.97;8.33;;;;;;;23.11;70.95;102092.00;5029816;28;20498;-44
2023/06/07 08:58:45;;;;;;;10.07;8.00;;;;;;;21.99;71.58;102092.81;5029538;28;20455;-46
2023/06/07 09:01:13;;;;;;;16.67;9.13;;;;;;;20.87;82.52;102088.50;5029862;28;20439;-48
2023/06/07 09:03:42;;;;;;;12.27;8.43;;;;;;;20.81;83.75;102098.38;5004299;28;20977;-46
2023/06/07 09:06:12;;;;;;;11.43;8.13;;;;;;;20.46;84.81;102089.28;5030398;28;20435;-49
2023/06/07 09:08:39;;;;;;;13.30;9.03;;;;;;;20.09;91.79;102087.66;5029679;28;20475;-46
2023/06/07 09:11:07;;;;;;;17.10;9.97;;;;;;;19.63;97.39;102090.88;5029633;28;20466;-44
2023/06/07 09:13:36;;;;;;;14.80;9.07;;;;;;;19.80;97.75;102094.66;5019006;28;20468;-44
2023/06/07 09:16:04;;;;;;;14.80;8.83;;;;;;;20.12;94.23;102096.16;5029278;28;20444;-45
2023/06/07 09:18:43;;;;;;;21.53;9.10;;;;;;;20.01;97.50;102086.06;5029700;28;20857;-45
2023/06/07 09:21:21;;;;;;;20.13;9.57;;;;;;;19.80;99.87;102100.88;5029455;28;20427;-44
2023/06/07 09:23:49;;;;;;;19.63;9.50;;;;;;;20.33;97.60;102086.75;5006358;28;21046;-45
2023/06/07 09:26:18;;;;;;;18.73;9.43;;;;;;;20.30;91.29;102087.22;5029381;28;20937;-46
2023/06/07 09:28:47;;;;;;;14.60;9.07;;;;;;;20.27;96.89;102084.97;5024679;28;20487;-44
2023/06/07 09:31:28;;;;;;;18.47;8.97;;;;;;;19.12;98.85;102096.50;5029327;28;20428;-45
2023/06/07 09:33:58;;;;;;;15.50;8.50;;;;;;;19.53;99.26;102095.97;5013104;28;20483;-44
2023/06/07 09:36:28;;;;;;;14.70;8.67;;;;;;;19.34;100.00;102090.50;5029036;28;20444;-46
2023/06/07 09:38:57;;;;;;;13.17;8.87;;;;;;;19.90;100.00;102086.84;5029393;28;20450;-43
2023/06/07 09:41:31;;;;;;;12.13;8.27;;;;;;;20.69;96.17;102089.38;5029354;28;20439;-43
2023/06/07 09:43:59;;;;;;;15.80;6.80;;;;;;;21.02;89.41;102080.75;5003740;28;20462;-45
2023/06/07 09:46:35;;;;;;;12.30;8.00;;;;;;;21.31;82.82;102079.88;5030114;28;20777;-45
2023/06/07 09:49:05;;;;;;;13.40;9.03;;;;;;;21.55;80.47;102086.13;5029360;28;20801;-45
2023/06/07 09:51:40;;;;;;;19.47;10.00;;;;;;;21.10;90.96;102091.28;5029469;28;20526;-46
2023/06/07 09:54:09;;;;;;;14.03;8.17;;;;;;;21.23;84.73;102085.66;5017948;28;20496;-45
2023/06/07 09:56:39;;;;;;;13.70;8.40;;;;;;;20.62;85.73;102085.09;5028435;28;20455;-43
2023/06/07 09:59:09;;;;;;;9.90;7.50;;;;;;;20.45;91.02;102076.81;5029184;28;20538;-48
2023/06/07 10:01:38;;;;;;;18.73;9.47;;;;;;;20.74;95.33;102070.53;5029057;28;20721;-48
2023/06/07 10:04:09;;;;;;;8.67;7.87;;;;;;;21.25;91.73;102074.53;5003548;28;20507;-49
2023/06/07 10:06:40;;;;;;;18.77;8.37;;;;;;;21.44;82.34;102068.75;5029912;28;20841;-45
2023/06/07 10:09:09;;;;;;;19.10;8.80;;;;;;;20.70;84.15;102071.22;5028608;28;20432;-43
2023/06/07 10:11:38;;;;;;;16.17;9.27;;;;;;;20.59;86.72;102072.00;5028539;28;20438;-45
2023/06/07 10:14:10;;;;;;;14.80;8.37;;;;;;;20.48;85.39;102079.06;5029221;28;20514;-45
2023/06/07 10:16:44;;;;;;;11.85;7.45;;;;;;;20.76;91.89;102073.00;5013918;28;20475;-48
2023/06/07 10:19:19;;;;;;;11.10;8.00;;;;;;;20.77;90.95;102071.94;5029259;28;21100;-44
2023/06/07 10:21:50;;;;;;;13.00;8.53;;;;;;;20.70;88.69;102076.63;5029276;28;20485;-42
2023/06/07 10:24:22;;;;;;;18.90;9.50;;;;;;;20.63;91.96;102073.22;5028795;28;20482;-45
2023/06/07 10:26:54;;;;;;;16.70;9.13;;;;;;;20.88;89.39;102069.28;5001246;28;20479;-46
2023/06/07 10:29:29;;;;;;;15.50;8.77;;;;;;;20.59;85.04;102069.31;5028229;28;20428;-45
2023/06/07 10:32:07;;;;;;;14.07;8.80;;;;;;;20.41;89.72;102072.88;5029474;28;20516;-45
2023/06/07 10:34:38;;;;;;;19.30;8.67;;;;;;;20.23;93.33;102065.59;5029301;28;20862;-43
2023/06/07 10:37:08;;;;;;;16.40;8.83;;;;;;;20.33;90.43;102071.34;5017740;28;20518;-47
2023/06/07 10:39:38;;;;;;;19.53;10.57;;;;;;;20.99;87.50;102064.94;5029332;28;20527;-46
2023/06/07 10:42:06;;;;;;;10.17;8.50;;;;;;;20.74;90.57;102064.28;5028774;28;20550;-49
2023/06/07 10:44:36;;;;;;;13.17;9.77;;;;;;;20.89;93.23;102064.69;5028300;28;21012;-43
2023/06/07 10:47:30;;;;;;;14.77;8.67;;;;;;;21.15;92.03;102061.56;5010217;28;20820;-46
2023/06/07 10:49:59;;;;;;;21.90;9.27;;;;;;;21.26;85.54;102052.63;5032767;28;20770;-43
2023/06/07 10:52:27;;;;;;;20.30;8.73;;;;;;;21.64;83.92;102060.25;5033454;28;20466;-44
2023/06/07 10:54:55;;;;;;;10.17;8.23;;;;;;;21.75;78.94;102055.88;5032717;28;20435;-48
2023/06/07 10:57:34;;;;;;;13.97;8.87;;;;;;;21.55;79.44;102047.28;5005973;28;20573;-48
2023/06/07 11:00:26;;;;;;;11.83;7.47;;;;;;;20.90;84.42;102048.19;5031742;28;20428;-44
2023/06/07 11:03:27;;;;;;;14.30;8.60;;;;;;;20.99;81.66;102045.97;5032850;28;20436;-42
2023/06/07 11:06:09;;;;;;;15.70;8.40;;;;;;;21.38;81.21;102033.63;5032646;28;20538;-46
2023/06/07 11:08:38;;;;;;;12.20;7.77;;;;;;;21.31;82.27;102033.75;5017484;28;20467;-42
2023/06/07 11:11:51;;;;;;;13.63;7.53;;;;;;;21.05;83.75;102045.03;5031679;28;20507;-46
2023/06/07 11:14:19;;;;;;;13.20;8.20;;;;;;;21.44;77.50;102041.63;5031843;28;20516;-47
2023/06/07 11:16:46;;;;;;;17.27;7.70;;;;;;;21.49;81.16;102041.75;5031186;28;20459;-49
2023/06/07 11:19:18;;;;;;;13.13;7.47;;;;;;;21.29;71.15;102044.00;5006482;28;20487;-46